sensor_id;sensor_type;location;lat;lon;timestamp;P1;durP1;ratioP1;P2;durP2;ratioP2
54368;SDS011;40266;52.434;17.056;2023-04-25T00:05:03;4.60;;;2.60;;
54368;SDS011;40266;52.434;17.056;2023-04-25T00:26:06;2.40;;;1.60;;
54368;SDS011;40266;52.434;17.056;2023-04-25T00:43:30;2.50;;;1.40;;
54368;SDS011;40266;52.434;17.056;2023-04-25T00:47:07;2.70;;;1.40;;
54368;SDS011;40266;52.434;17.056;2023-04-25T00:50:07;2.10;;;1.80;;
54368;SDS011;40266;52.434;17.056;2023-04-25T01:04:55;3.10;;;1.80;;
54368;SDS011;40266;52.434;17.056;2023-04-25T01:07:38;3.90;;;1.70;;
54368;SDS011;40266;52.434;17.056;2023-04-25T01:10:22;2.40;;;1.70;;
54368;SDS011;40266;52.434;17.056;2023-04-25T01:13:05;4.50;;;1.80;;
54368;SDS011;40266;52.434;17.056;2023-04-25T01:15:49;3.50;;;2.00;;
54368;SDS011;40266;52.434;17.056;2023-04-25T01:18:32;4.30;;;2.20;;
54368;SDS011;40266;52.434;17.056;2023-04-25T01:21:15;3.40;;;2.30;;
54368;SDS011;40266;52.434;17.056;2023-04-25T01:23:59;3.60;;;2.30;;
54368;SDS011;40266;52.434;17.056;2023-04-25T01:26:43;4.20;;;2.70;;
54368;SDS011;40266;52.434;17.056;2023-04-25T01:29:36;4.00;;;2.50;;
54368;SDS011;40266;52.434;17.056;2023-04-25T01:32:19;3.70;;;2.20;;
54368;SDS011;40266;52.434;17.056;2023-04-25T01:35:02;3.40;;;2.50;;
54368;SDS011;40266;52.434;17.056;2023-04-25T01:37:46;3.80;;;2.70;;
54368;SDS011;40266;52.434;17.056;2023-04-25T01:40:29;2.40;;;2.10;;
54368;SDS011;40266;52.434;17.056;2023-04-25T01:43:12;4.40;;;2.40;;
54368;SDS011;40266;52.434;17.056;2023-04-25T01:45:56;5.10;;;2.50;;
54368;SDS011;40266;52.434;17.056;2023-04-25T01:48:40;4.30;;;2.60;;
54368;SDS011;40266;52.434;17.056;2023-04-25T01:51:23;6.40;;;2.70;;
54368;SDS011;40266;52.434;17.056;2023-04-25T01:54:06;3.50;;;2.40;;
54368;SDS011;40266;52.434;17.056;2023-04-25T01:56:50;5.80;;;2.50;;
54368;SDS011;40266;52.434;17.056;2023-04-25T01:59:35;4.40;;;2.00;;
54368;SDS011;40266;52.434;17.056;2023-04-25T02:02:41;13.50;;;2.50;;
54368;SDS011;40266;52.434;17.056;2023-04-25T02:05:44;5.00;;;2.30;;
54368;SDS011;40266;52.434;17.056;2023-04-25T02:08:28;3.90;;;2.30;;
54368;SDS011;40266;52.434;17.056;2023-04-25T02:11:12;2.90;;;2.20;;
54368;SDS011;40266;52.434;17.056;2023-04-25T02:14:05;2.00;;;1.80;;
54368;SDS011;40266;52.434;17.056;2023-04-25T02:16:54;3.00;;;2.30;;
54368;SDS011;40266;52.434;17.056;2023-04-25T02:19:38;4.10;;;2.30;;
54368;SDS011;40266;52.434;17.056;2023-04-25T02:22:22;4.70;;;2.20;;
54368;SDS011;40266;52.434;17.056;2023-04-25T02:25:05;4.00;;;2.60;;
54368;SDS011;40266;52.434;17.056;2023-04-25T02:27:49;2.90;;;2.30;;
54368;SDS011;40266;52.434;17.056;2023-04-25T02:30:32;3.30;;;2.30;;
54368;SDS011;40266;52.434;17.056;2023-04-25T02:33:15;6.50;;;2.50;;
54368;SDS011;40266;52.434;17.056;2023-04-25T02:35:59;6.50;;;2.40;;
54368;SDS011;40266;52.434;17.056;2023-04-25T02:38:42;4.10;;;2.40;;
54368;SDS011;40266;52.434;17.056;2023-04-25T02:41:25;3.60;;;2.60;;
54368;SDS011;40266;52.434;17.056;2023-04-25T02:44:09;6.00;;;2.70;;
54368;SDS011;40266;52.434;17.056;2023-04-25T02:46:52;3.00;;;2.40;;
54368;SDS011;40266;52.434;17.056;2023-04-25T02:49:38;6.00;;;2.90;;
54368;SDS011;40266;52.434;17.056;2023-04-25T02:52:22;4.50;;;2.50;;
54368;SDS011;40266;52.434;17.056;2023-04-25T02:55:12;6.80;;;3.30;;
54368;SDS011;40266;52.434;17.056;2023-04-25T02:57:56;7.40;;;3.30;;
54368;SDS011;40266;52.434;17.056;2023-04-25T03:00:51;6.10;;;2.90;;
54368;SDS011;40266;52.434;17.056;2023-04-25T03:03:34;3.90;;;2.80;;
54368;SDS011;40266;52.434;17.056;2023-04-25T03:06:17;4.50;;;3.00;;
54368;SDS011;40266;52.434;17.056;2023-04-25T03:09:00;4.70;;;3.10;;
54368;SDS011;40266;52.434;17.056;2023-04-25T03:11:44;4.70;;;2.80;;
54368;SDS011;40266;52.434;17.056;2023-04-25T03:14:28;5.00;;;3.50;;
54368;SDS011;40266;52.434;17.056;2023-04-25T03:17:11;7.90;;;3.70;;
54368;SDS011;40266;52.434;17.056;2023-04-25T03:19:54;4.60;;;3.20;;
54368;SDS011;40266;52.434;17.056;2023-04-25T03:22:37;7.20;;;3.70;;
54368;SDS011;40266;52.434;17.056;2023-04-25T03:25:20;7.40;;;3.40;;
54368;SDS011;40266;52.434;17.056;2023-04-25T03:28:03;4.20;;;3.20;;
54368;SDS011;40266;52.434;17.056;2023-04-25T03:30:47;6.20;;;3.60;;
54368;SDS011;40266;52.434;17.056;2023-04-25T03:33:30;5.90;;;3.60;;
54368;SDS011;40266;52.434;17.056;2023-04-25T03:36:13;8.20;;;4.00;;
54368;SDS011;40266;52.434;17.056;2023-04-25T03:38:56;7.70;;;3.90;;
54368;SDS011;40266;52.434;17.056;2023-04-25T03:41:39;4.30;;;3.40;;
54368;SDS011;40266;52.434;17.056;2023-04-25T03:44:27;7.30;;;4.30;;
54368;SDS011;40266;52.434;17.056;2023-04-25T03:47:10;7.50;;;3.40;;
54368;SDS011;40266;52.434;17.056;2023-04-25T03:49:53;8.30;;;3.90;;
54368;SDS011;40266;52.434;17.056;2023-04-25T03:52:39;6.80;;;3.90;;
54368;SDS011;40266;52.434;17.056;2023-04-25T03:55:21;6.50;;;3.80;;
54368;SDS011;40266;52.434;17.056;2023-04-25T03:58:05;6.90;;;4.00;;
54368;SDS011;40266;52.434;17.056;2023-04-25T04:00:48;7.20;;;3.70;;
54368;SDS011;40266;52.434;17.056;2023-04-25T04:03:31;7.40;;;4.20;;
54368;SDS011;40266;52.434;17.056;2023-04-25T04:06:14;6.40;;;3.80;;
54368;SDS011;40266;52.434;17.056;2023-04-25T04:09:02;5.80;;;4.10;;
54368;SDS011;40266;52.434;17.056;2023-04-25T04:11:49;9.50;;;4.60;;
54368;SDS011;40266;52.434;17.056;2023-04-25T04:14:32;7.60;;;4.40;;
54368;SDS011;40266;52.434;17.056;2023-04-25T04:17:15;9.10;;;4.70;;
54368;SDS011;40266;52.434;17.056;2023-04-25T04:19:58;8.70;;;4.60;;
54368;SDS011;40266;52.434;17.056;2023-04-25T04:22:46;11.00;;;5.20;;
54368;SDS011;40266;52.434;17.056;2023-04-25T04:25:30;8.30;;;5.00;;
54368;SDS011;40266;52.434;17.056;2023-04-25T04:28:32;10.40;;;6.30;;
54368;SDS011;40266;52.434;17.056;2023-04-25T04:31:41;12.20;;;5.20;;
54368;SDS011;40266;52.434;17.056;2023-04-25T04:34:24;10.00;;;5.00;;
54368;SDS011;40266;52.434;17.056;2023-04-25T04:37:08;9.40;;;5.40;;
54368;SDS011;40266;52.434;17.056;2023-04-25T04:39:52;11.70;;;5.50;;
54368;SDS011;40266;52.434;17.056;2023-04-25T04:42:43;10.30;;;5.80;;
54368;SDS011;40266;52.434;17.056;2023-04-25T04:45:40;7.50;;;5.10;;
54368;SDS011;40266;52.434;17.056;2023-04-25T04:48:35;9.90;;;5.60;;
54368;SDS011;40266;52.434;17.056;2023-04-25T04:51:33;11.50;;;5.90;;
54368;SDS011;40266;52.434;17.056;2023-04-25T04:54:40;12.60;;;5.90;;
54368;SDS011;40266;52.434;17.056;2023-04-25T04:57:49;9.60;;;5.60;;
54368;SDS011;40266;52.434;17.056;2023-04-25T05:01:05;7.60;;;4.80;;
54368;SDS011;40266;52.434;17.056;2023-04-25T05:07:09;8.60;;;4.90;;
54368;SDS011;40266;52.434;17.056;2023-04-25T05:10:02;7.90;;;4.80;;
54368;SDS011;40266;52.434;17.056;2023-04-25T05:13:18;9.10;;;5.00;;
54368;SDS011;40266;52.434;17.056;2023-04-25T05:16:19;5.90;;;4.10;;
54368;SDS011;40266;52.434;17.056;2023-04-25T05:19:07;6.80;;;4.80;;
54368;SDS011;40266;52.434;17.056;2023-04-25T05:22:17;11.90;;;5.60;;
54368;SDS011;40266;52.434;17.056;2023-04-25T05:25:35;8.90;;;5.00;;
54368;SDS011;40266;52.434;17.056;2023-04-25T05:28:36;8.40;;;5.30;;
54368;SDS011;40266;52.434;17.056;2023-04-25T05:31:58;9.50;;;5.40;;
54368;SDS011;40266;52.434;17.056;2023-04-25T05:34:41;9.80;;;5.00;;
54368;SDS011;40266;52.434;17.056;2023-04-25T05:37:34;10.20;;;4.40;;
54368;SDS011;40266;52.434;17.056;2023-04-25T05:40:24;8.90;;;4.90;;
54368;SDS011;40266;52.434;17.056;2023-04-25T05:43:40;9.20;;;4.50;;
54368;SDS011;40266;52.434;17.056;2023-04-25T05:47:03;10.90;;;3.90;;
54368;SDS011;40266;52.434;17.056;2023-04-25T05:50:06;6.30;;;3.80;;
54368;SDS011;40266;52.434;17.056;2023-04-25T05:53:23;5.70;;;3.70;;
54368;SDS011;40266;52.434;17.056;2023-04-25T05:56:15;6.30;;;3.90;;
54368;SDS011;40266;52.434;17.056;2023-04-25T05:58:58;7.50;;;3.80;;
54368;SDS011;40266;52.434;17.056;2023-04-25T06:01:41;9.20;;;4.00;;
54368;SDS011;40266;52.434;17.056;2023-04-25T06:04:24;3.50;;;2.90;;
54368;SDS011;40266;52.434;17.056;2023-04-25T06:07:09;7.60;;;3.80;;
54368;SDS011;40266;52.434;17.056;2023-04-25T06:09:52;9.50;;;4.20;;
54368;SDS011;40266;52.434;17.056;2023-04-25T06:12:35;12.70;;;4.50;;
54368;SDS011;40266;52.434;17.056;2023-04-25T06:15:19;9.50;;;4.30;;
54368;SDS011;40266;52.434;17.056;2023-04-25T06:18:05;10.80;;;4.80;;
54368;SDS011;40266;52.434;17.056;2023-04-25T06:20:49;8.70;;;4.80;;
54368;SDS011;40266;52.434;17.056;2023-04-25T06:23:32;12.80;;;4.20;;
54368;SDS011;40266;52.434;17.056;2023-04-25T06:26:18;6.40;;;3.80;;
54368;SDS011;40266;52.434;17.056;2023-04-25T06:29:02;10.50;;;4.10;;
54368;SDS011;40266;52.434;17.056;2023-04-25T06:31:45;11.80;;;4.40;;
54368;SDS011;40266;52.434;17.056;2023-04-25T06:34:28;8.50;;;4.20;;
54368;SDS011;40266;52.434;17.056;2023-04-25T06:37:12;7.80;;;4.00;;
54368;SDS011;40266;52.434;17.056;2023-04-25T06:39:55;6.80;;;4.00;;
54368;SDS011;40266;52.434;17.056;2023-04-25T06:42:38;9.00;;;4.00;;
54368;SDS011;40266;52.434;17.056;2023-04-25T06:45:52;6.60;;;3.80;;
54368;SDS011;40266;52.434;17.056;2023-04-25T06:48:36;8.70;;;3.70;;
54368;SDS011;40266;52.434;17.056;2023-04-25T06:51:19;8.10;;;4.00;;
54368;SDS011;40266;52.434;17.056;2023-04-25T06:54:06;6.30;;;3.30;;
54368;SDS011;40266;52.434;17.056;2023-04-25T06:56:55;8.10;;;4.20;;
54368;SDS011;40266;52.434;17.056;2023-04-25T06:59:38;8.00;;;4.20;;
54368;SDS011;40266;52.434;17.056;2023-04-25T07:02:21;9.00;;;3.70;;
54368;SDS011;40266;52.434;17.056;2023-04-25T07:05:05;8.10;;;3.90;;
54368;SDS011;40266;52.434;17.056;2023-04-25T07:07:48;9.10;;;3.80;;
54368;SDS011;40266;52.434;17.056;2023-04-25T07:10:32;9.60;;;4.20;;
54368;SDS011;40266;52.434;17.056;2023-04-25T07:13:14;10.00;;;3.80;;
54368;SDS011;40266;52.434;17.056;2023-04-25T07:15:57;9.90;;;4.40;;
54368;SDS011;40266;52.434;17.056;2023-04-25T07:18:42;8.30;;;3.80;;
54368;SDS011;40266;52.434;17.056;2023-04-25T07:21:25;11.70;;;4.30;;
54368;SDS011;40266;52.434;17.056;2023-04-25T07:24:09;8.90;;;4.20;;
54368;SDS011;40266;52.434;17.056;2023-04-25T07:26:54;7.80;;;4.00;;
54368;SDS011;40266;52.434;17.056;2023-04-25T07:29:42;10.00;;;3.50;;
54368;SDS011;40266;52.434;17.056;2023-04-25T07:32:25;9.30;;;4.00;;
54368;SDS011;40266;52.434;17.056;2023-04-25T07:35:10;9.20;;;3.40;;
54368;SDS011;40266;52.434;17.056;2023-04-25T07:37:53;6.90;;;3.80;;
54368;SDS011;40266;52.434;17.056;2023-04-25T07:40:37;7.50;;;4.00;;
54368;SDS011;40266;52.434;17.056;2023-04-25T07:43:22;6.80;;;3.40;;
54368;SDS011;40266;52.434;17.056;2023-04-25T07:46:12;11.90;;;4.50;;
54368;SDS011;40266;52.434;17.056;2023-04-25T07:48:55;7.10;;;3.90;;
54368;SDS011;40266;52.434;17.056;2023-04-25T07:51:38;12.80;;;4.40;;
54368;SDS011;40266;52.434;17.056;2023-04-25T07:54:24;11.50;;;4.20;;
54368;SDS011;40266;52.434;17.056;2023-04-25T07:57:12;8.40;;;3.90;;
54368;SDS011;40266;52.434;17.056;2023-04-25T07:59:57;11.10;;;4.00;;
54368;SDS011;40266;52.434;17.056;2023-04-25T08:02:41;8.30;;;3.70;;
54368;SDS011;40266;52.434;17.056;2023-04-25T08:05:26;12.20;;;4.00;;
54368;SDS011;40266;52.434;17.056;2023-04-25T08:08:14;12.60;;;4.40;;
54368;SDS011;40266;52.434;17.056;2023-04-25T08:10:58;7.50;;;4.00;;
54368;SDS011;40266;52.434;17.056;2023-04-25T08:13:42;11.00;;;3.80;;
54368;SDS011;40266;52.434;17.056;2023-04-25T08:16:25;9.40;;;3.90;;
54368;SDS011;40266;52.434;17.056;2023-04-25T08:19:08;10.50;;;3.50;;
54368;SDS011;40266;52.434;17.056;2023-04-25T08:21:52;6.20;;;3.30;;
54368;SDS011;40266;52.434;17.056;2023-04-25T08:24:40;6.80;;;3.50;;
54368;SDS011;40266;52.434;17.056;2023-04-25T08:27:23;7.30;;;3.90;;
54368;SDS011;40266;52.434;17.056;2023-04-25T08:30:08;7.20;;;3.50;;
54368;SDS011;40266;52.434;17.056;2023-04-25T08:32:52;9.50;;;3.70;;
54368;SDS011;40266;52.434;17.056;2023-04-25T08:35:59;11.40;;;3.80;;
54368;SDS011;40266;52.434;17.056;2023-04-25T08:38:43;7.90;;;3.90;;
54368;SDS011;40266;52.434;17.056;2023-04-25T08:41:26;6.40;;;3.60;;
54368;SDS011;40266;52.434;17.056;2023-04-25T08:44:10;9.30;;;4.00;;
54368;SDS011;40266;52.434;17.056;2023-04-25T08:46:54;8.40;;;3.30;;
54368;SDS011;40266;52.434;17.056;2023-04-25T08:49:45;8.80;;;3.30;;
54368;SDS011;40266;52.434;17.056;2023-04-25T08:52:32;4.70;;;2.90;;
54368;SDS011;40266;52.434;17.056;2023-04-25T08:55:18;12.80;;;3.60;;
54368;SDS011;40266;52.434;17.056;2023-04-25T08:58:03;10.20;;;3.60;;
54368;SDS011;40266;52.434;17.056;2023-04-25T09:00:51;8.90;;;3.70;;
54368;SDS011;40266;52.434;17.056;2023-04-25T09:03:36;9.80;;;3.70;;
54368;SDS011;40266;52.434;17.056;2023-04-25T09:06:19;9.60;;;4.00;;
54368;SDS011;40266;52.434;17.056;2023-04-25T09:09:05;7.80;;;4.00;;
54368;SDS011;40266;52.434;17.056;2023-04-25T09:11:49;5.90;;;3.90;;
54368;SDS011;40266;52.434;17.056;2023-04-25T09:14:33;11.50;;;4.20;;
54368;SDS011;40266;52.434;17.056;2023-04-25T09:17:23;9.50;;;3.60;;
54368;SDS011;40266;52.434;17.056;2023-04-25T09:20:09;9.50;;;3.30;;
54368;SDS011;40266;52.434;17.056;2023-04-25T09:23:01;8.10;;;3.30;;
54368;SDS011;40266;52.434;17.056;2023-04-25T09:25:47;8.10;;;3.60;;
54368;SDS011;40266;52.434;17.056;2023-04-25T09:28:32;7.50;;;3.80;;
54368;SDS011;40266;52.434;17.056;2023-04-25T09:31:22;9.80;;;3.90;;
54368;SDS011;40266;52.434;17.056;2023-04-25T09:34:10;15.50;;;4.80;;
54368;SDS011;40266;52.434;17.056;2023-04-25T09:37:01;9.80;;;4.20;;
54368;SDS011;40266;52.434;17.056;2023-04-25T09:40:13;11.80;;;4.30;;
54368;SDS011;40266;52.434;17.056;2023-04-25T09:43:23;8.20;;;4.30;;
54368;SDS011;40266;52.434;17.056;2023-04-25T09:46:08;11.30;;;3.60;;
54368;SDS011;40266;52.434;17.056;2023-04-25T09:48:56;9.80;;;3.60;;
54368;SDS011;40266;52.434;17.056;2023-04-25T09:51:54;5.30;;;3.20;;
54368;SDS011;40266;52.434;17.056;2023-04-25T09:54:40;6.00;;;3.20;;
54368;SDS011;40266;52.434;17.056;2023-04-25T09:57:29;7.40;;;2.90;;
54368;SDS011;40266;52.434;17.056;2023-04-25T10:00:14;9.60;;;4.00;;
54368;SDS011;40266;52.434;17.056;2023-04-25T10:02:57;8.90;;;2.90;;
54368;SDS011;40266;52.434;17.056;2023-04-25T10:06:07;8.30;;;3.20;;
54368;SDS011;40266;52.434;17.056;2023-04-25T10:08:51;8.20;;;3.30;;
54368;SDS011;40266;52.434;17.056;2023-04-25T10:11:37;6.70;;;4.00;;
54368;SDS011;40266;52.434;17.056;2023-04-25T10:14:22;8.50;;;3.60;;
54368;SDS011;40266;52.434;17.056;2023-04-25T10:17:06;5.00;;;3.10;;
54368;SDS011;40266;52.434;17.056;2023-04-25T10:19:51;4.40;;;2.90;;
54368;SDS011;40266;52.434;17.056;2023-04-25T10:22:38;6.80;;;3.20;;
54368;SDS011;40266;52.434;17.056;2023-04-25T10:25:24;7.20;;;3.10;;
54368;SDS011;40266;52.434;17.056;2023-04-25T10:28:07;11.40;;;3.50;;
54368;SDS011;40266;52.434;17.056;2023-04-25T10:33:48;6.20;;;3.00;;
54368;SDS011;40266;52.434;17.056;2023-04-25T10:36:32;4.10;;;3.00;;
54368;SDS011;40266;52.434;17.056;2023-04-25T10:39:15;6.10;;;3.30;;
54368;SDS011;40266;52.434;17.056;2023-04-25T10:42:05;6.00;;;3.80;;
54368;SDS011;40266;52.434;17.056;2023-04-25T10:45:04;9.00;;;3.10;;
54368;SDS011;40266;52.434;17.056;2023-04-25T10:47:48;8.50;;;3.30;;
54368;SDS011;40266;52.434;17.056;2023-04-25T10:50:38;4.50;;;2.90;;
54368;SDS011;40266;52.434;17.056;2023-04-25T10:53:23;7.00;;;3.00;;
54368;SDS011;40266;52.434;17.056;2023-04-25T10:56:11;6.30;;;2.70;;
54368;SDS011;40266;52.434;17.056;2023-04-25T11:01:53;5.40;;;2.70;;
54368;SDS011;40266;52.434;17.056;2023-04-25T11:04:40;5.20;;;2.40;;
54368;SDS011;40266;52.434;17.056;2023-04-25T11:07:44;2.90;;;2.60;;
54368;SDS011;40266;52.434;17.056;2023-04-25T11:10:48;6.60;;;2.80;;
54368;SDS011;40266;52.434;17.056;2023-04-25T11:13:33;8.60;;;3.50;;
54368;SDS011;40266;52.434;17.056;2023-04-25T11:16:16;6.20;;;3.30;;
54368;SDS011;40266;52.434;17.056;2023-04-25T11:19:09;6.20;;;3.10;;
54368;SDS011;40266;52.434;17.056;2023-04-25T11:21:59;8.90;;;3.40;;
54368;SDS011;40266;52.434;17.056;2023-04-25T11:24:43;5.30;;;3.10;;
54368;SDS011;40266;52.434;17.056;2023-04-25T11:27:28;4.80;;;2.40;;
54368;SDS011;40266;52.434;17.056;2023-04-25T11:30:14;5.50;;;2.50;;
54368;SDS011;40266;52.434;17.056;2023-04-25T11:32:58;5.20;;;3.00;;
54368;SDS011;40266;52.434;17.056;2023-04-25T11:35:41;8.00;;;3.00;;
54368;SDS011;40266;52.434;17.056;2023-04-25T11:38:25;6.90;;;3.20;;
54368;SDS011;40266;52.434;17.056;2023-04-25T11:41:11;7.40;;;2.80;;
54368;SDS011;40266;52.434;17.056;2023-04-25T11:43:54;4.90;;;2.60;;
54368;SDS011;40266;52.434;17.056;2023-04-25T11:46:38;4.20;;;2.60;;
54368;SDS011;40266;52.434;17.056;2023-04-25T11:49:21;7.10;;;2.40;;
54368;SDS011;40266;52.434;17.056;2023-04-25T11:52:06;7.50;;;2.30;;
54368;SDS011;40266;52.434;17.056;2023-04-25T11:54:49;5.70;;;2.80;;
54368;SDS011;40266;52.434;17.056;2023-04-25T11:57:33;6.00;;;2.30;;
54368;SDS011;40266;52.434;17.056;2023-04-25T12:00:17;6.00;;;2.70;;
54368;SDS011;40266;52.434;17.056;2023-04-25T12:03:02;7.10;;;3.10;;
54368;SDS011;40266;52.434;17.056;2023-04-25T12:05:46;8.10;;;2.90;;
54368;SDS011;40266;52.434;17.056;2023-04-25T12:08:29;4.30;;;2.80;;
54368;SDS011;40266;52.434;17.056;2023-04-25T12:11:21;5.70;;;2.60;;
54368;SDS011;40266;52.434;17.056;2023-04-25T12:14:04;4.10;;;2.40;;
54368;SDS011;40266;52.434;17.056;2023-04-25T12:16:48;5.30;;;2.50;;
54368;SDS011;40266;52.434;17.056;2023-04-25T12:19:35;6.10;;;2.80;;
54368;SDS011;40266;52.434;17.056;2023-04-25T12:22:20;8.60;;;2.90;;
54368;SDS011;40266;52.434;17.056;2023-04-25T12:25:05;7.70;;;3.20;;
54368;SDS011;40266;52.434;17.056;2023-04-25T12:27:50;6.70;;;3.10;;
54368;SDS011;40266;52.434;17.056;2023-04-25T12:30:50;10.80;;;3.80;;
54368;SDS011;40266;52.434;17.056;2023-04-25T12:33:57;8.30;;;3.60;;
54368;SDS011;40266;52.434;17.056;2023-04-25T12:36:40;8.00;;;3.80;;
54368;SDS011;40266;52.434;17.056;2023-04-25T12:39:24;6.60;;;3.40;;
54368;SDS011;40266;52.434;17.056;2023-04-25T12:42:10;10.40;;;3.80;;
54368;SDS011;40266;52.434;17.056;2023-04-25T12:44:58;6.80;;;3.20;;
54368;SDS011;40266;52.434;17.056;2023-04-25T12:47:41;7.70;;;3.40;;
54368;SDS011;40266;52.434;17.056;2023-04-25T12:50:23;5.40;;;3.30;;
54368;SDS011;40266;52.434;17.056;2023-04-25T12:53:06;6.50;;;2.70;;
54368;SDS011;40266;52.434;17.056;2023-04-25T12:55:50;9.90;;;2.70;;
54368;SDS011;40266;52.434;17.056;2023-04-25T12:58:33;5.20;;;2.40;;
54368;SDS011;40266;52.434;17.056;2023-04-25T13:01:16;5.80;;;2.30;;
54368;SDS011;40266;52.434;17.056;2023-04-25T13:03:59;3.90;;;2.40;;
54368;SDS011;40266;52.434;17.056;2023-04-25T13:06:42;4.90;;;2.30;;
54368;SDS011;40266;52.434;17.056;2023-04-25T13:09:25;5.70;;;2.10;;
54368;SDS011;40266;52.434;17.056;2023-04-25T13:12:08;5.60;;;2.70;;
54368;SDS011;40266;52.434;17.056;2023-04-25T13:14:51;4.80;;;2.40;;
54368;SDS011;40266;52.434;17.056;2023-04-25T13:17:34;6.00;;;2.40;;
54368;SDS011;40266;52.434;17.056;2023-04-25T13:20:17;7.90;;;2.90;;
54368;SDS011;40266;52.434;17.056;2023-04-25T13:23:01;2.60;;;2.20;;
54368;SDS011;40266;52.434;17.056;2023-04-25T13:25:44;5.60;;;1.90;;
54368;SDS011;40266;52.434;17.056;2023-04-25T13:28:28;4.70;;;2.30;;
54368;SDS011;40266;52.434;17.056;2023-04-25T13:31:10;7.10;;;2.30;;
54368;SDS011;40266;52.434;17.056;2023-04-25T13:33:53;4.80;;;2.30;;
54368;SDS011;40266;52.434;17.056;2023-04-25T13:36:36;9.20;;;2.90;;
54368;SDS011;40266;52.434;17.056;2023-04-25T13:39:19;3.60;;;1.90;;
54368;SDS011;40266;52.434;17.056;2023-04-25T13:42:02;3.70;;;1.70;;
54368;SDS011;40266;52.434;17.056;2023-04-25T13:44:45;7.60;;;1.60;;
54368;SDS011;40266;52.434;17.056;2023-04-25T13:47:28;6.70;;;2.30;;
54368;SDS011;40266;52.434;17.056;2023-04-25T13:50:12;6.30;;;1.50;;
54368;SDS011;40266;52.434;17.056;2023-04-25T13:52:56;2.00;;;1.50;;
54368;SDS011;40266;52.434;17.056;2023-04-25T13:55:39;2.10;;;1.10;;
54368;SDS011;40266;52.434;17.056;2023-04-25T13:58:22;9.60;;;1.90;;
54368;SDS011;40266;52.434;17.056;2023-04-25T14:01:05;3.70;;;2.00;;
54368;SDS011;40266;52.434;17.056;2023-04-25T14:03:48;7.30;;;2.40;;
54368;SDS011;40266;52.434;17.056;2023-04-25T14:06:31;2.10;;;1.90;;
54368;SDS011;40266;52.434;17.056;2023-04-25T14:09:15;5.10;;;2.20;;
54368;SDS011;40266;52.434;17.056;2023-04-25T14:11:58;2.80;;;2.40;;
54368;SDS011;40266;52.434;17.056;2023-04-25T14:14:41;5.40;;;2.60;;
54368;SDS011;40266;52.434;17.056;2023-04-25T14:17:24;6.40;;;2.90;;
54368;SDS011;40266;52.434;17.056;2023-04-25T14:20:08;5.20;;;2.60;;
54368;SDS011;40266;52.434;17.056;2023-04-25T14:22:51;5.80;;;2.40;;
54368;SDS011;40266;52.434;17.056;2023-04-25T14:25:37;4.60;;;2.20;;
54368;SDS011;40266;52.434;17.056;2023-04-25T14:28:20;5.20;;;2.00;;
54368;SDS011;40266;52.434;17.056;2023-04-25T14:31:03;3.20;;;2.10;;
54368;SDS011;40266;52.434;17.056;2023-04-25T14:33:46;1.70;;;1.50;;
54368;SDS011;40266;52.434;17.056;2023-04-25T14:36:29;2.20;;;1.70;;
54368;SDS011;40266;52.434;17.056;2023-04-25T14:39:13;3.80;;;1.60;;
54368;SDS011;40266;52.434;17.056;2023-04-25T14:41:57;4.00;;;1.60;;
54368;SDS011;40266;52.434;17.056;2023-04-25T14:44:40;2.90;;;2.00;;
54368;SDS011;40266;52.434;17.056;2023-04-25T14:47:23;3.90;;;2.00;;
54368;SDS011;40266;52.434;17.056;2023-04-25T14:50:07;5.10;;;1.70;;
54368;SDS011;40266;52.434;17.056;2023-04-25T14:52:51;3.70;;;1.90;;
54368;SDS011;40266;52.434;17.056;2023-04-25T14:55:35;5.40;;;2.00;;
54368;SDS011;40266;52.434;17.056;2023-04-25T14:58:18;2.50;;;1.70;;
54368;SDS011;40266;52.434;17.056;2023-04-25T15:01:00;3.80;;;2.10;;
54368;SDS011;40266;52.434;17.056;2023-04-25T15:03:44;6.10;;;2.40;;
54368;SDS011;40266;52.434;17.056;2023-04-25T15:06:27;5.90;;;2.30;;
54368;SDS011;40266;52.434;17.056;2023-04-25T15:09:12;2.80;;;2.30;;
54368;SDS011;40266;52.434;17.056;2023-04-25T15:11:55;5.50;;;2.60;;
54368;SDS011;40266;52.434;17.056;2023-04-25T15:14:38;7.10;;;3.10;;
54368;SDS011;40266;52.434;17.056;2023-04-25T15:17:21;5.00;;;2.50;;
54368;SDS011;40266;52.434;17.056;2023-04-25T15:20:05;7.80;;;1.90;;
54368;SDS011;40266;52.434;17.056;2023-04-25T15:22:49;7.30;;;2.60;;
54368;SDS011;40266;52.434;17.056;2023-04-25T15:25:32;9.00;;;2.60;;
54368;SDS011;40266;52.434;17.056;2023-04-25T15:28:15;11.20;;;2.90;;
54368;SDS011;40266;52.434;17.056;2023-04-25T15:30:58;9.90;;;3.40;;
54368;SDS011;40266;52.434;17.056;2023-04-25T15:33:41;9.50;;;3.10;;
54368;SDS011;40266;52.434;17.056;2023-04-25T15:36:24;20.50;;;4.10;;
54368;SDS011;40266;52.434;17.056;2023-04-25T15:39:07;8.50;;;3.20;;
54368;SDS011;40266;52.434;17.056;2023-04-25T15:41:50;14.10;;;2.80;;
54368;SDS011;40266;52.434;17.056;2023-04-25T15:44:32;10.60;;;3.40;;
54368;SDS011;40266;52.434;17.056;2023-04-25T15:47:15;7.10;;;2.90;;
54368;SDS011;40266;52.434;17.056;2023-04-25T15:49:59;11.60;;;3.40;;
54368;SDS011;40266;52.434;17.056;2023-04-25T15:52:42;12.20;;;3.20;;
54368;SDS011;40266;52.434;17.056;2023-04-25T15:55:26;13.20;;;3.30;;
54368;SDS011;40266;52.434;17.056;2023-04-25T15:58:09;12.00;;;3.50;;
54368;SDS011;40266;52.434;17.056;2023-04-25T16:00:55;11.40;;;3.70;;
54368;SDS011;40266;52.434;17.056;2023-04-25T16:03:38;14.90;;;3.60;;
54368;SDS011;40266;52.434;17.056;2023-04-25T16:06:22;10.10;;;3.40;;
54368;SDS011;40266;52.434;17.056;2023-04-25T16:09:05;13.80;;;3.30;;
54368;SDS011;40266;52.434;17.056;2023-04-25T16:11:48;11.10;;;3.60;;
54368;SDS011;40266;52.434;17.056;2023-04-25T16:14:31;10.70;;;3.90;;
54368;SDS011;40266;52.434;17.056;2023-04-25T16:17:15;12.00;;;4.70;;
54368;SDS011;40266;52.434;17.056;2023-04-25T16:19:58;14.20;;;3.90;;
54368;SDS011;40266;52.434;17.056;2023-04-25T16:22:43;9.30;;;3.70;;
54368;SDS011;40266;52.434;17.056;2023-04-25T16:25:26;15.60;;;3.50;;
54368;SDS011;40266;52.434;17.056;2023-04-25T16:28:09;16.10;;;4.10;;
54368;SDS011;40266;52.434;17.056;2023-04-25T16:30:53;13.50;;;3.80;;
54368;SDS011;40266;52.434;17.056;2023-04-25T16:33:36;15.20;;;4.20;;
54368;SDS011;40266;52.434;17.056;2023-04-25T16:36:18;17.00;;;4.90;;
54368;SDS011;40266;52.434;17.056;2023-04-25T16:39:01;14.70;;;4.30;;
54368;SDS011;40266;52.434;17.056;2023-04-25T16:41:44;21.30;;;4.30;;
54368;SDS011;40266;52.434;17.056;2023-04-25T16:44:27;16.00;;;5.20;;
54368;SDS011;40266;52.434;17.056;2023-04-25T16:47:10;14.40;;;3.90;;
54368;SDS011;40266;52.434;17.056;2023-04-25T16:49:59;16.30;;;4.60;;
54368;SDS011;40266;52.434;17.056;2023-04-25T16:52:43;18.70;;;4.10;;
54368;SDS011;40266;52.434;17.056;2023-04-25T16:55:26;16.10;;;4.30;;
54368;SDS011;40266;52.434;17.056;2023-04-25T16:58:09;15.30;;;4.20;;
54368;SDS011;40266;52.434;17.056;2023-04-25T17:00:56;14.30;;;4.40;;
54368;SDS011;40266;52.434;17.056;2023-04-25T17:03:39;20.60;;;4.00;;
54368;SDS011;40266;52.434;17.056;2023-04-25T17:06:22;13.30;;;3.80;;
54368;SDS011;40266;52.434;17.056;2023-04-25T17:09:06;14.10;;;3.70;;
54368;SDS011;40266;52.434;17.056;2023-04-25T17:11:49;13.90;;;3.30;;
54368;SDS011;40266;52.434;17.056;2023-04-25T17:14:32;19.20;;;4.50;;
54368;SDS011;40266;52.434;17.056;2023-04-25T17:17:17;18.00;;;4.20;;
54368;SDS011;40266;52.434;17.056;2023-04-25T17:20:00;16.10;;;4.10;;
54368;SDS011;40266;52.434;17.056;2023-04-25T17:22:43;15.70;;;4.80;;